createdAt,value
2022-10-06T00:02:19.211Z,95105.28
2022-10-06T00:04:47.188Z,95105.03
2022-10-06T00:07:15.079Z,95107.66
2022-10-06T00:09:42.328Z,95113.94
2022-10-06T00:12:09.815Z,95111.56
2022-10-06T00:14:36.807Z,95124.19
2022-10-06T00:17:03.432Z,95119.31
2022-10-06T00:19:29.845Z,95124.31
2022-10-06T00:21:56.230Z,95122.56
2022-10-06T00:24:22.641Z,95132.03
2022-10-06T00:26:49.122Z,95129.47
2022-10-06T00:29:15.792Z,95129.53
2022-10-06T00:31:42.200Z,95127.03
2022-10-06T00:34:08.606Z,95129.69
2022-10-06T00:36:35.050Z,95128.41
2022-10-06T00:39:01.477Z,95130.25
2022-10-06T00:41:28.505Z,95125.13
2022-10-06T00:43:59.306Z,95134.81
2022-10-06T00:46:47.422Z,95133.84
2022-10-06T00:49:23.543Z,95130.75
2022-10-06T00:52:06.979Z,95138.59
2022-10-06T00:54:36.016Z,95137.88
2022-10-06T00:57:04.504Z,95142.59
2022-10-06T00:59:30.906Z,95139.53
2022-10-06T01:02:03.777Z,95145.88
2022-10-06T01:04:36.825Z,95143.03
2022-10-06T01:07:04.266Z,95145.41
2022-10-06T01:09:31.502Z,95148.59
2022-10-06T01:12:02.106Z,95145.47
2022-10-06T01:14:29.198Z,95142.81
2022-10-06T01:17:07.644Z,95142.97
2022-10-06T01:19:48.546Z,95142.16
2022-10-06T01:22:16.411Z,95142.38
2022-10-06T01:24:47.219Z,95145.78
2022-10-06T01:27:15.869Z,95146.06
2022-10-06T01:29:42.544Z,95141.59
2022-10-06T01:32:09.501Z,95137.50
2022-10-06T01:34:36.445Z,95149.97
2022-10-06T01:37:02.810Z,95148.72
2022-10-06T01:39:29.918Z,95152.41
2022-10-06T01:41:56.470Z,95142.66
2022-10-06T01:44:22.862Z,95154.63
2022-10-06T01:46:50.565Z,95153.72
2022-10-06T01:49:17.005Z,95150.50
2022-10-06T01:51:45.849Z,95151.22
2022-10-06T01:54:12.267Z,95150.97
2022-10-06T01:56:38.789Z,95155.41
2022-10-06T01:59:05.480Z,95159.06
2022-10-06T02:01:32.082Z,95154.13
2022-10-06T02:03:58.620Z,95159.63
2022-10-06T02:06:26.144Z,95154.41
2022-10-06T02:08:52.609Z,95163.31
2022-10-06T02:11:19.915Z,95159.38
2022-10-06T02:13:48.539Z,95172.63
2022-10-06T02:16:15.114Z,95162.19
2022-10-06T02:18:42.961Z,95143.50
2022-10-06T02:21:15.420Z,95165.31
2022-10-06T02:23:41.927Z,95168.97
2022-10-06T02:26:08.486Z,95172.38
2022-10-06T02:28:35.398Z,95166.66
2022-10-06T02:31:07.224Z,95176.31
2022-10-06T02:33:36.065Z,95180.53
2022-10-06T02:36:05.453Z,95183.22
2022-10-06T02:38:32.884Z,95179.63
2022-10-06T02:41:01.914Z,95183.03
2022-10-06T02:43:31.483Z,95187.53
2022-10-06T02:46:12.259Z,95189.16
2022-10-06T02:48:43.119Z,95194.41
2022-10-06T02:51:13.346Z,95195.53
2022-10-06T02:53:40.165Z,95203.63
2022-10-06T02:56:21.953Z,95210.19
2022-10-06T02:58:49.552Z,95213.09
2022-10-06T03:01:27.272Z,95219.59
2022-10-06T03:03:56.866Z,95217.53
2022-10-06T03:06:25.724Z,95219.59
2022-10-06T03:09:01.847Z,95211.28
2022-10-06T03:11:34.734Z,95222.75
2022-10-06T03:14:01.684Z,95215.97
2022-10-06T03:16:38.681Z,95223.81
2022-10-06T03:19:09.051Z,95221.75
2022-10-06T03:21:40.061Z,95231.19
2022-10-06T03:24:06.839Z,95233.31
2022-10-06T03:26:38.764Z,95222.34
2022-10-06T03:29:11.096Z,95227.06
2022-10-06T03:31:40.979Z,95227.84
2022-10-06T03:34:07.423Z,95237.78
2022-10-06T03:36:35.191Z,95242.72
2022-10-06T03:39:04.003Z,95249.78
2022-10-06T03:41:34.509Z,95239.63
2022-10-06T03:44:01.456Z,95245.88
2022-10-06T03:46:34.042Z,95246.97
2022-10-06T03:49:03.597Z,95253.72
2022-10-06T03:51:39.080Z,95252.72
2022-10-06T03:54:10.683Z,95264.97
2022-10-06T03:56:40.929Z,95262.06
2022-10-06T03:59:12.272Z,95260.22
2022-10-06T04:01:46.281Z,95273.25
2022-10-06T04:04:17.103Z,95279.75
2022-10-06T04:06:46.948Z,95275.63
2022-10-06T04:09:16.862Z,95277.69
2022-10-06T04:11:44.760Z,95282.38
2022-10-06T04:14:15.043Z,95284.19
2022-10-06T04:16:46.908Z,95277.34
2022-10-06T04:19:17.035Z,95289.38
2022-10-06T04:21:48.186Z,95293.81
2022-10-06T04:24:18.728Z,95305.84
2022-10-06T04:26:48.904Z,95309.00
2022-10-06T04:29:17.046Z,95308.50
2022-10-06T04:31:46.101Z,95315.25
2022-10-06T04:34:21.335Z,95309.00
2022-10-06T04:36:48.073Z,95315.22
2022-10-06T04:39:16.361Z,95316.53
2022-10-06T04:41:47.245Z,95315.78
2022-10-06T04:44:19.009Z,95313.72
2022-10-06T04:46:46.012Z,95320.59
2022-10-06T04:49:19.472Z,95325.34
2022-10-06T04:51:48.873Z,95330.31
2022-10-06T04:54:15.936Z,95330.56
2022-10-06T04:56:42.526Z,95341.53
2022-10-06T04:59:09.808Z,95343.63
2022-10-06T05:01:38.889Z,95337.84
2022-10-06T05:04:09.832Z,95349.38
2022-10-06T05:06:39.774Z,95352.28
2022-10-06T05:09:08.803Z,95361.94
2022-10-06T05:11:37.352Z,95369.00
2022-10-06T05:14:07.028Z,95372.97
2022-10-06T05:16:38.168Z,95372.72
2022-10-06T05:19:05.801Z,95368.81
2022-10-06T05:21:32.774Z,95377.72
2022-10-06T05:24:00.955Z,95386.06
2022-10-06T05:26:30.881Z,95384.47
2022-10-06T05:28:58.631Z,95388.94
2022-10-06T05:31:28.268Z,95388.66
2022-10-06T05:33:57.192Z,95391.53
2022-10-06T05:36:28.634Z,95398.31
2022-10-06T05:38:56.225Z,95399.09
2022-10-06T05:41:25.113Z,95405.59
2022-10-06T05:43:52.036Z,95400.09
2022-10-06T05:46:25.122Z,95407.41
2022-10-06T05:48:55.833Z,95411.84
2022-10-06T05:51:31.116Z,95408.41
2022-10-06T05:53:59.919Z,95425.63
2022-10-06T05:56:31.755Z,95423.00
2022-10-06T05:58:59.746Z,95425.06
2022-10-06T06:01:36.239Z,95427.41
2022-10-06T06:04:10.271Z,95433.38
2022-10-06T06:06:43.826Z,95436.22
2022-10-06T06:09:16.955Z,95435.44
2022-10-06T06:11:49.732Z,95438.00
2022-10-06T06:14:40.740Z,95441.38
2022-10-06T06:17:07.750Z,95447.13
2022-10-06T06:19:34.166Z,95447.63
2022-10-06T06:22:00.791Z,95449.19
2022-10-06T06:24:27.190Z,95463.53
2022-10-06T06:26:53.588Z,95464.56
2022-10-06T06:29:20.011Z,95454.84
2022-10-06T06:31:48.725Z,95467.09
2022-10-06T06:34:15.625Z,95468.63
2022-10-06T06:36:46.770Z,95464.13
2022-10-06T06:39:17.583Z,95480.28
2022-10-06T06:41:47.092Z,95481.78
2022-10-06T06:44:35.612Z,95486.59
2022-10-06T06:47:05.610Z,95486.53
2022-10-06T06:49:32.258Z,95490.38
2022-10-06T06:52:04.674Z,95501.81
2022-10-06T06:54:33.288Z,95495.19
2022-10-06T06:57:04.834Z,95496.72
2022-10-06T06:59:32.932Z,95490.94
2022-10-06T07:02:00.935Z,95487.47
2022-10-06T07:04:30.414Z,95498.69
2022-10-06T07:06:59.741Z,95496.00
2022-10-06T07:09:30.598Z,95495.19
2022-10-06T07:12:07.114Z,95504.25
2022-10-06T07:14:33.513Z,95506.31
2022-10-06T07:17:19.677Z,95507.28
2022-10-06T07:20:07.754Z,95502.00
2022-10-06T07:22:53.637Z,95515.06
2022-10-06T07:25:26.354Z,95514.22
2022-10-06T07:27:59.159Z,95519.16
2022-10-06T07:30:35.014Z,95521.75
2022-10-06T07:33:12.005Z,95528.53
2022-10-06T07:35:39.492Z,95513.66
2022-10-06T07:38:07.806Z,95529.66
2022-10-06T07:40:46.237Z,95522.25
2022-10-06T07:43:22.672Z,95523.69
2022-10-06T07:45:50.289Z,95522.50
2022-10-06T07:48:23.352Z,95524.50
2022-10-06T07:51:01.529Z,95533.22
2022-10-06T07:53:36.011Z,95530.38
2022-10-06T07:56:08.652Z,95535.78
2022-10-06T07:58:44.116Z,95543.47
2022-10-06T08:01:15.365Z,95539.34
2022-10-06T08:03:42.773Z,95534.00
2022-10-06T08:06:14.238Z,95536.63
2022-10-06T08:08:41.619Z,95534.56
2022-10-06T08:11:09.801Z,95544.66
2022-10-06T08:13:38.046Z,95539.13
2022-10-06T08:16:10.424Z,95548.75
2022-10-06T08:18:46.833Z,95556.84
2022-10-06T08:21:28.844Z,95567.38
2022-10-06T08:23:58.054Z,95564.03
2022-10-06T08:26:26.083Z,95565.38
2022-10-06T08:28:55.248Z,95569.06
2022-10-06T08:31:22.860Z,95578.00
2022-10-06T08:33:54.130Z,95565.38
2022-10-06T08:36:20.845Z,95584.19
2022-10-06T08:38:50.381Z,95582.25
2022-10-06T08:41:39.704Z,95580.03
2022-10-06T08:44:19.479Z,95578.41
2022-10-06T08:47:02.821Z,95583.28
2022-10-06T08:49:39.360Z,95583.91
2022-10-06T08:52:46.155Z,95584.03
2022-10-06T08:55:37.398Z,95590.75
2022-10-06T08:58:29.090Z,95587.16
2022-10-06T09:01:15.161Z,95603.34
2022-10-06T09:03:47.242Z,95594.56
2022-10-06T09:06:44.809Z,95599.03
2022-10-06T09:09:39.211Z,95591.84
2022-10-06T09:12:25.960Z,95599.44
2022-10-06T09:14:57.071Z,95591.28
2022-10-06T09:17:32.071Z,95580.88
2022-10-06T09:20:03.401Z,95591.50
2022-10-06T09:22:32.435Z,95606.53
2022-10-06T09:25:17.024Z,95604.28
2022-10-06T09:27:50.546Z,95600.75
2022-10-06T09:30:17.706Z,95605.34
2022-10-06T09:32:47.002Z,95603.38
2022-10-06T09:35:22.291Z,95607.84
2022-10-06T09:38:00.107Z,95608.69
2022-10-06T09:40:39.000Z,95595.25
2022-10-06T09:43:25.455Z,95608.31
2022-10-06T09:45:57.240Z,95613.47
2022-10-06T09:48:27.108Z,95616.69
2022-10-06T09:51:14.095Z,95615.03
2022-10-06T09:53:42.337Z,95605.28
2022-10-06T09:56:18.747Z,95605.00
2022-10-06T09:58:59.202Z,95605.25
2022-10-06T10:01:28.527Z,95611.78
2022-10-06T10:04:19.594Z,95616.69
2022-10-06T10:06:47.766Z,95624.41
2022-10-06T10:09:21.320Z,95620.41
2022-10-06T10:12:24.861Z,95614.44
2022-10-06T10:15:13.593Z,95625.31
2022-10-06T10:17:49.596Z,95615.31
2022-10-06T10:20:25.119Z,95614.84
2022-10-06T10:22:53.183Z,95615.16
2022-10-06T10:25:44.334Z,95614.84
2022-10-06T10:28:17.955Z,95615.56
2022-10-06T10:30:54.660Z,95615.09
2022-10-06T10:33:46.162Z,95610.25
2022-10-06T10:36:27.392Z,95618.81
2022-10-06T10:38:55.116Z,95626.53
2022-10-06T10:41:28.805Z,95622.78
2022-10-06T10:44:21.265Z,95627.41
2022-10-06T10:46:52.272Z,95616.25
2022-10-06T10:49:28.402Z,95614.75
2022-10-06T10:52:05.300Z,95612.31
2022-10-06T10:54:44.245Z,95607.50
2022-10-06T10:57:16.302Z,95606.28
2022-10-06T10:59:49.492Z,95605.03
2022-10-06T11:02:19.417Z,95609.59
2022-10-06T11:04:50.217Z,95604.25
2022-10-06T11:07:38.446Z,95595.53
2022-10-06T11:10:20.826Z,95600.31
2022-10-06T11:13:16.192Z,95590.81
2022-10-06T11:16:06.752Z,95587.91
2022-10-06T11:19:18.013Z,95588.78
2022-10-06T11:22:10.060Z,95594.25
2022-10-06T11:24:47.878Z,95600.72
2022-10-06T11:27:31.501Z,95589.16
2022-10-06T11:30:07.385Z,95594.94
2022-10-06T11:32:48.762Z,95591.56
2022-10-06T11:35:23.674Z,95587.97
2022-10-06T11:37:57.857Z,95590.66
2022-10-06T11:40:51.691Z,95597.28
2022-10-06T11:43:28.933Z,95586.75
2022-10-06T11:46:18.917Z,95594.44
2022-10-06T11:48:46.517Z,95587.94
2022-10-06T11:51:25.038Z,95588.28
2022-10-06T11:53:58.644Z,95592.38
2022-10-06T11:56:37.518Z,95587.47
2022-10-06T11:59:24.951Z,95582.06
2022-10-06T12:01:53.334Z,95589.13
2022-10-06T12:04:24.546Z,95569.22
2022-10-06T12:06:56.321Z,95576.13
2022-10-06T12:09:25.882Z,95578.72
2022-10-06T12:11:54.561Z,95577.41
2022-10-06T12:17:58.095Z,95580.22
2022-10-06T12:20:44.961Z,95577.25
2022-10-06T12:23:26.212Z,95575.06
2022-10-06T12:25:59.402Z,95573.50
2022-10-06T12:28:39.212Z,95568.41
2022-10-06T12:31:22.798Z,95569.81
2022-10-06T12:33:50.417Z,95563.59
2022-10-06T12:36:28.166Z,95568.97
2022-10-06T12:39:06.838Z,95564.31
2022-10-06T12:41:59.567Z,95561.53
2022-10-06T12:44:43.013Z,95570.75
2022-10-06T12:47:37.038Z,95568.13
2022-10-06T12:50:12.971Z,95567.97
2022-10-06T12:52:54.262Z,95571.75
2022-10-06T12:55:43.847Z,95564.06
2022-10-06T12:58:26.225Z,95560.22
2022-10-06T13:00:53.190Z,95568.47
2022-10-06T13:03:24.755Z,95567.84
2022-10-06T13:05:57.166Z,95572.00
2022-10-06T13:08:32.270Z,95568.06
2022-10-06T13:11:31.164Z,95563.69
2022-10-06T13:14:07.801Z,95564.63
2022-10-06T13:16:40.958Z,95573.91
2022-10-06T13:19:17.328Z,95569.38
2022-10-06T13:21:44.288Z,95570.41
2022-10-06T13:24:19.277Z,95569.81
2022-10-06T13:26:46.562Z,95562.75
2022-10-06T13:29:19.410Z,95562.19
2022-10-06T13:31:51.876Z,95554.09
2022-10-06T13:34:28.700Z,95558.34
2022-10-06T13:36:55.764Z,95553.84
2022-10-06T13:39:24.531Z,95564.88
2022-10-06T13:41:56.130Z,95556.44
2022-10-06T13:44:39.618Z,95553.94
2022-10-06T13:47:15.616Z,95562.72
2022-10-06T13:50:00.535Z,95560.13
2022-10-06T13:52:37.951Z,95565.59
2022-10-06T13:55:27.185Z,95552.59
2022-10-06T13:57:56.675Z,95562.22
2022-10-06T14:00:32.140Z,95565.38
2022-10-06T14:03:04.508Z,95565.94
2022-10-06T14:05:41.767Z,95563.75
2022-10-06T14:08:11.298Z,95566.78
2022-10-06T14:10:40.735Z,95563.41
2022-10-06T14:13:16.734Z,95563.97
2022-10-06T14:15:58.341Z,95568.44
2022-10-06T14:18:43.879Z,95562.25
2022-10-06T14:21:17.848Z,95559.44
2022-10-06T14:23:51.466Z,95568.31
2022-10-06T14:26:23.098Z,95556.22
2022-10-06T14:28:52.746Z,95557.59
2022-10-06T14:31:24.954Z,95551.50
2022-10-06T14:33:52.653Z,95552.88
2022-10-06T14:36:22.599Z,95553.97
2022-10-06T14:38:50.872Z,95550.97
2022-10-06T14:41:24.897Z,95552.81
2022-10-06T14:44:08.469Z,95553.44
2022-10-06T14:46:35.733Z,95547.94
2022-10-06T14:49:07.489Z,95548.69
2022-10-06T14:51:37.039Z,95553.00
2022-10-06T14:54:05.017Z,95539.97
2022-10-06T14:56:33.470Z,95546.47
2022-10-06T14:59:03.841Z,95541.81
2022-10-06T15:01:31.419Z,95547.22
2022-10-06T15:04:00.506Z,95543.91
2022-10-06T15:06:46.611Z,95538.00
2022-10-06T15:09:13.542Z,95539.88
2022-10-06T15:11:40.691Z,95538.19
2022-10-06T15:14:08.590Z,95531.56
2022-10-06T15:16:37.389Z,95535.06
2022-10-06T15:19:05.420Z,95529.19
2022-10-06T15:21:33.342Z,95519.94
2022-10-06T15:24:02.882Z,95520.44
2022-10-06T15:26:49.028Z,95518.78
2022-10-06T15:29:16.186Z,95513.59
2022-10-06T15:31:44.816Z,95510.94
2022-10-06T15:34:13.598Z,95507.47
2022-10-06T15:36:43.137Z,95509.00
2022-10-06T15:39:12.100Z,95513.78
2022-10-06T15:41:40.787Z,95520.31
2022-10-06T15:44:08.453Z,95504.44
2022-10-06T15:46:49.672Z,95521.25
2022-10-06T15:49:19.818Z,95533.41
2022-10-06T15:51:51.906Z,95518.94
2022-10-06T15:54:24.205Z,95525.13
2022-10-06T15:56:55.189Z,95514.50
2022-10-06T15:59:25.349Z,95518.34
2022-10-06T16:01:56.131Z,95525.88
2022-10-06T16:04:40.321Z,95532.72
2022-10-06T16:07:08.772Z,95525.72
2022-10-06T16:09:43.107Z,95528.31
2022-10-06T16:12:12.706Z,95532.34
2022-10-06T16:14:39.135Z,95522.09
2022-10-06T16:17:06.989Z,95519.13
2022-10-06T16:19:36.649Z,95517.72
2022-10-06T16:22:04.587Z,95526.84
2022-10-06T16:24:31.218Z,95516.53
2022-10-06T16:26:59.729Z,95526.94
2022-10-06T16:29:27.625Z,95523.56
2022-10-06T16:31:54.774Z,95527.00
2022-10-06T16:34:21.406Z,95520.38
2022-10-06T16:36:47.804Z,95523.72
2022-10-06T16:39:19.977Z,95526.31
2022-10-06T16:41:47.079Z,95529.69
2022-10-06T16:44:13.566Z,95531.84
2022-10-06T16:46:40.176Z,95521.31
2022-10-06T16:49:08.478Z,95527.03
2022-10-06T16:51:37.299Z,95525.34
2022-10-06T16:54:08.862Z,95529.41
2022-10-06T16:56:37.849Z,95523.75
2022-10-06T16:59:10.670Z,95520.22
2022-10-06T17:01:37.574Z,95520.31
2022-10-06T17:04:08.111Z,95526.13
2022-10-06T17:06:39.292Z,95534.09
2022-10-06T17:09:08.063Z,95539.41
2022-10-06T17:11:36.081Z,95541.34
2022-10-06T17:14:03.267Z,95534.31
2022-10-06T17:16:32.843Z,95544.81
2022-10-06T17:18:59.474Z,95534.31
2022-10-06T17:21:45.122Z,95541.88
2022-10-06T17:24:12.593Z,95541.09
2022-10-06T17:26:40.943Z,95534.09
2022-10-06T17:29:11.711Z,95543.78
2022-10-06T17:31:40.787Z,95542.22
2022-10-06T17:34:12.283Z,95541.25
2022-10-06T17:36:50.639Z,95544.94
2022-10-06T17:39:19.709Z,95545.72
2022-10-06T17:41:47.572Z,95543.88
2022-10-06T17:44:23.715Z,95545.94
2022-10-06T17:46:52.995Z,95548.00
2022-10-06T17:49:20.793Z,95550.63
2022-10-06T17:51:48.450Z,95550.63
2022-10-06T17:54:18.933Z,95551.66
2022-10-06T17:56:47.336Z,95549.34
2022-10-06T17:59:22.214Z,95539.59
2022-10-06T18:01:49.108Z,95544.84
2022-10-06T18:04:16.024Z,95543.56
2022-10-06T18:06:44.073Z,95549.63
2022-10-06T18:09:11.366Z,95553.28
2022-10-06T18:11:39.617Z,95539.41
2022-10-06T18:14:14.589Z,95538.88
2022-10-06T18:16:45.277Z,95546.28
2022-10-06T18:19:17.597Z,95541.81
2022-10-06T18:21:45.642Z,95548.13
2022-10-06T18:24:16.347Z,95546.28
2022-10-06T18:26:48.070Z,95541.81
2022-10-06T18:29:16.609Z,95542.59
2022-10-06T18:31:43.898Z,95543.38
2022-10-06T18:36:58.364Z,95532.75
2022-10-06T18:39:25.354Z,95540.63
2022-10-06T18:41:52.190Z,95537.78
2022-10-06T18:44:39.473Z,95543.31
2022-10-06T18:47:24.315Z,95555.91
2022-10-06T18:49:52.822Z,95548.91
2022-10-06T18:52:21.494Z,95550.50
2022-10-06T18:54:48.794Z,95543.84
2022-10-06T18:57:15.266Z,95549.69
2022-10-06T18:59:42.383Z,95542.91
2022-10-06T19:02:08.931Z,95545.63
2022-10-06T19:04:35.813Z,95543.81
2022-10-06T19:07:02.462Z,95538.34
2022-10-06T19:09:28.865Z,95549.91
2022-10-06T19:11:57.648Z,95541.56
2022-10-06T19:14:34.822Z,95546.34
2022-10-06T19:17:14.920Z,95554.75
2022-10-06T19:19:50.879Z,95546.69
2022-10-06T19:22:19.138Z,95550.63
2022-10-06T19:24:48.260Z,95549.63
2022-10-06T19:27:20.711Z,95556.44
2022-10-06T19:29:56.289Z,95555.13
2022-10-06T19:32:26.144Z,95552.88
2022-10-06T19:34:53.028Z,95553.41
2022-10-06T19:37:19.498Z,95553.72
2022-10-06T19:39:49.949Z,95543.50
2022-10-06T19:42:36.942Z,95543.72
2022-10-06T19:45:05.400Z,95542.94
2022-10-06T19:47:31.850Z,95534.53
2022-10-06T19:50:02.069Z,95538.72
2022-10-06T19:52:31.282Z,95534.22
2022-10-06T19:54:57.980Z,95525.31
2022-10-06T19:57:25.012Z,95542.25
2022-10-06T19:59:51.423Z,95543.28
2022-10-06T20:02:17.833Z,95540.88
2022-10-06T20:04:45.273Z,95542.16
2022-10-06T20:07:12.588Z,95531.94
2022-10-06T20:09:38.981Z,95535.59
2022-10-06T20:12:05.861Z,95545.78
2022-10-06T20:14:32.366Z,95535.78
2022-10-06T20:16:58.825Z,95537.34
2022-10-06T20:19:25.388Z,95539.97
2022-10-06T20:21:52.874Z,95536.56
2022-10-06T20:24:22.660Z,95538.41
2022-10-06T20:26:50.577Z,95529.25
2022-10-06T20:29:20.528Z,95526.94
2022-10-06T20:31:49.555Z,95538.97
2022-10-06T20:34:18.720Z,95527.41
2022-10-06T20:36:47.404Z,95530.53
2022-10-06T20:39:40.050Z,95533.69
2022-10-06T20:42:12.009Z,95524.72
2022-10-06T20:44:42.027Z,95527.34
2022-10-06T20:47:08.861Z,95528.44
2022-10-06T20:49:35.252Z,95519.78
2022-10-06T20:52:03.200Z,95524.25
2022-10-06T20:54:34.927Z,95524.25
2022-10-06T20:57:03.775Z,95525.84
2022-10-06T20:59:31.097Z,95520.66
2022-10-06T21:01:59.894Z,95522.06
2022-10-06T21:04:30.234Z,95522.63
2022-10-06T21:06:57.290Z,95522.69
2022-10-06T21:09:24.639Z,95521.47
2022-10-06T21:11:51.877Z,95524.69
2022-10-06T21:14:18.709Z,95521.31
2022-10-06T21:16:47.616Z,95516.34
2022-10-06T21:19:16.811Z,95508.28
2022-10-06T21:21:46.077Z,95515.84
2022-10-06T21:24:12.622Z,95516.41
2022-10-06T21:26:42.481Z,95513.78
2022-10-06T21:29:11.568Z,95507.50
2022-10-06T21:31:38.213Z,95501.72
2022-10-06T21:34:05.132Z,95507.75
2022-10-06T21:36:34.320Z,95506.97
2022-10-06T21:39:01.729Z,95505.91
2022-10-06T21:41:32.035Z,95506.66
2022-10-06T21:44:02.968Z,95502.44
2022-10-06T21:46:51.367Z,95498.72
2022-10-06T21:49:22.689Z,95496.59
2022-10-06T21:51:50.456Z,95491.91
2022-10-06T21:54:17.931Z,95492.44
2022-10-06T21:56:44.604Z,95495.84
2022-10-06T21:59:11.802Z,95501.31
2022-10-06T22:01:41.428Z,95482.97
2022-10-06T22:04:08.549Z,95487.97
2022-10-06T22:06:37.092Z,95484.78
2022-10-06T22:09:06.313Z,95488.94
2022-10-06T22:11:38.580Z,95481.88
2022-10-06T22:14:08.062Z,95484.22
2022-10-06T22:16:36.065Z,95478.69
2022-10-06T22:19:04.818Z,95472.66
2022-10-06T22:21:36.716Z,95473.75
2022-10-06T22:24:08.880Z,95477.91
2022-10-06T22:26:37.539Z,95466.94
2022-10-06T22:29:06.239Z,95471.13
2022-10-06T22:31:33.138Z,95464.31
2022-10-06T22:34:02.002Z,95461.38
2022-10-06T22:36:28.864Z,95460.09
2022-10-06T22:38:56.498Z,95459.56
2022-10-06T22:41:24.187Z,95461.13
2022-10-06T22:43:58.297Z,95463.75
2022-10-06T22:46:26.402Z,95458.00
2022-10-06T22:48:53.485Z,95446.44
2022-10-06T22:51:20.732Z,95437.53
2022-10-06T22:53:55.166Z,95443.81
2022-10-06T22:56:24.870Z,95434.41
2022-10-06T22:58:51.402Z,95431.25
2022-10-06T23:01:19.637Z,95428.41
2022-10-06T23:03:47.259Z,95423.94
2022-10-06T23:06:16.205Z,95427.03
2022-10-06T23:08:43.083Z,95422.84
2022-10-06T23:11:17.285Z,95418.69
2022-10-06T23:13:44.632Z,95418.47
2022-10-06T23:16:15.889Z,95420.22
2022-10-06T23:18:43.402Z,95413.72
2022-10-06T23:21:13.912Z,95414.00
2022-10-06T23:23:40.436Z,95413.78
2022-10-06T23:26:09.354Z,95413.00
2022-10-06T23:28:35.945Z,95406.75
2022-10-06T23:31:05.205Z,95404.16
2022-10-06T23:33:32.679Z,95404.16
2022-10-06T23:36:00.936Z,95404.75
2022-10-06T23:38:28.064Z,95393.56
2022-10-06T23:40:55.297Z,95404.53
2022-10-06T23:43:22.926Z,95396.94
2022-10-06T23:45:50.350Z,95405.88
2022-10-06T23:48:17.260Z,95400.63
2022-10-06T23:50:43.848Z,95399.34
2022-10-06T23:53:10.381Z,95398.81
2022-10-06T23:55:36.908Z,95396.50
2022-10-06T23:58:03.417Z,95398.34
